Aledo, IL

10:34 AM CST on March 03, 2015 (GMT -0600)
KILALEDO2 | Change Station
CLOSE
Current Station
Personal Weather Station
Location: Aledo, IL
Elevation: 735 ft
Nearby Weather Stations
Active Advisory: Winter Weather Advisory

Elev 735 ft 41.20 °N, 90.76 °W | Updated 1 second ago

Fog
Fog
32.7 °F
Feels Like 33 °F
N
0.0
Wind Variable Wind from SSW
Gusts 0.0 mph

Today
High -- | Low -- °F
--% Chance of Precip.
Yesterday
High -- | Low -- °F
Precip. -- in
6:34 AM 5:55 PM
Waxing Gibbous, 96% visible
Pressure 29.73 in
Visibility 1.5 miles
Clouds Overcast 600 ft
Windchill 33 °F
Dew Point 28 °F
Humidity 84%
Rainfall 0.00 in
Snow Depth Not available.
UV 1 out of 12
Pollen .50 out of 12
Air Quality Not available.
Flu Activity Not available.
METAR KMLI 031552Z 21011KT 1 1/2SM BR OVC006 M01/M02 A2970 RMK AO2 SLP065 I1001 T10061022

More Conditions Fewer Conditions

Pressure 29.73 in
Visibility 1.5 miles
Clouds Overcast 600 ft
Windchill 33 °F
Dew Point 28 °F
Humidity 84%
Rainfall 0.00 in
Snow Depth Not available.
UV 1 out of 12
Pollen .50 out of 12
Air Quality Not available.
Flu Activity Not available.
METAR KMLI 031552Z 21011KT 1 1/2SM BR OVC006 M01/M02 A2970 RMK AO2 SLP065 I1001 T10061022

More Conditions Fewer Conditions

10-Day Weather Forecast

Almanac

Astronomy

Mar. 03, 2015 Rise Set
Actual Time
Civil Twilight
Nautical Twilight
Astronomical Twilight
Moon
Length of Visible Light
Length of Day
Tomorrow will be .
, % of the Moon is Illuminated

Today's Extremes

State Highs State Lows

Community

WunderPhotos

Upload Photos

1,802,164 photos uploaded!

WunderBlogs® & News

Nearby

Air Quality

  Air Quality AQ Index Pollutant
Not available.

Snow Depth

Station Depth Elevation

Earthquake Activity

City Distance Mag. Time & Date
Minimum magnitude displayed is 2.5.

Coastal Water Temperatures

Place Temperature

Nearby Weather Stations

Winter Weather Advisory
Statement as of 9:08 AM CST on March 03, 2015

... Winter Weather Advisory in effect until noon CST today...

The National Weather Service in Quad Cities has issued a Winter
Weather Advisory for mixed precipitation... which is in effect
until noon CST today.

* Timing... through noon.

* Snow accumulations... a trace.

* Ice accumulations... a trace.

* Winds... south winds 10 to 20 mph with gusts up to 25 mph.

* Temperatures... rising into the lower 30s.

* Impacts... the lingering light snow or freezing drizzle may
result in hazardous travel this morning.

Precautionary/preparedness actions...

A Winter Weather Advisory means that periods of snow... sleet... or
freezing rain will cause travel difficulties. Be prepared for
slippery roads and limited visibilities... and be careful while
driving.